sensor_id;sensor_type;location;lat;lon;timestamp;P1;durP1;ratioP1;P2;durP2;ratioP2
46953;SDS011;32707;43.886;12.874;2022-08-19T05:58:14;14.23;;;2.40;;
46953;SDS011;32707;43.886;12.874;2022-08-19T06:00:40;9.25;;;2.05;;
46953;SDS011;32707;43.886;12.874;2022-08-19T06:03:08;9.18;;;2.80;;
46953;SDS011;32707;43.886;12.874;2022-08-19T06:05:35;14.82;;;2.05;;
46953;SDS011;32707;43.886;12.874;2022-08-19T06:08:00;5.60;;;1.75;;
46953;SDS011;32707;43.886;12.874;2022-08-19T06:10:26;5.95;;;2.08;;
46953;SDS011;32707;43.886;12.874;2022-08-19T06:12:53;6.72;;;2.22;;
46953;SDS011;32707;43.886;12.874;2022-08-19T06:15:19;7.25;;;2.20;;
46953;SDS011;32707;43.886;12.874;2022-08-19T06:17:44;7.13;;;2.13;;
46953;SDS011;32707;43.886;12.874;2022-08-19T06:20:11;7.00;;;1.80;;
46953;SDS011;32707;43.886;12.874;2022-08-19T06:22:40;9.57;;;1.70;;
46953;SDS011;32707;43.886;12.874;2022-08-19T06:25:07;7.93;;;1.80;;
46953;SDS011;32707;43.886;12.874;2022-08-19T06:27:34;10.30;;;2.15;;
46953;SDS011;32707;43.886;12.874;2022-08-19T06:30:01;10.95;;;2.72;;
46953;SDS011;32707;43.886;12.874;2022-08-19T06:32:33;9.20;;;1.83;;
46953;SDS011;32707;43.886;12.874;2022-08-19T06:34:58;7.68;;;1.73;;
46953;SDS011;32707;43.886;12.874;2022-08-19T06:37:24;6.22;;;1.73;;
46953;SDS011;32707;43.886;12.874;2022-08-19T06:39:50;5.75;;;1.70;;
46953;SDS011;32707;43.886;12.874;2022-08-19T06:42:16;4.45;;;1.80;;
46953;SDS011;32707;43.886;12.874;2022-08-19T06:44:44;8.50;;;1.35;;
46953;SDS011;32707;43.886;12.874;2022-08-19T06:47:13;11.48;;;1.63;;
46953;SDS011;32707;43.886;12.874;2022-08-19T06:49:40;9.52;;;1.83;;
46953;SDS011;32707;43.886;12.874;2022-08-19T06:52:07;9.38;;;2.42;;
46953;SDS011;32707;43.886;12.874;2022-08-19T06:54:36;17.38;;;2.15;;
46953;SDS011;32707;43.886;12.874;2022-08-19T06:57:01;7.15;;;1.67;;
46953;SDS011;32707;43.886;12.874;2022-08-19T06:59:27;15.30;;;1.98;;
46953;SDS011;32707;43.886;12.874;2022-08-19T07:01:58;11.45;;;1.70;;
46953;SDS011;32707;43.886;12.874;2022-08-19T07:04:26;11.52;;;2.25;;
46953;SDS011;32707;43.886;12.874;2022-08-19T07:06:58;13.40;;;1.65;;
46953;SDS011;32707;43.886;12.874;2022-08-19T07:09:26;8.23;;;1.10;;
46953;SDS011;32707;43.886;12.874;2022-08-19T07:11:52;7.40;;;1.50;;
46953;SDS011;32707;43.886;12.874;2022-08-19T07:14:19;7.80;;;2.08;;
46953;SDS011;32707;43.886;12.874;2022-08-19T07:16:51;12.00;;;1.60;;
46953;SDS011;32707;43.886;12.874;2022-08-19T07:19:20;4.78;;;1.60;;
46953;SDS011;32707;43.886;12.874;2022-08-19T07:21:47;6.57;;;1.67;;
46953;SDS011;32707;43.886;12.874;2022-08-19T07:24:16;10.18;;;2.03;;
46953;SDS011;32707;43.886;12.874;2022-08-19T07:26:43;9.23;;;1.60;;
46953;SDS011;32707;43.886;12.874;2022-08-19T07:29:12;13.38;;;2.03;;
46953;SDS011;32707;43.886;12.874;2022-08-19T07:31:37;10.88;;;1.95;;
46953;SDS011;32707;43.886;12.874;2022-08-19T07:34:04;7.20;;;1.67;;
46953;SDS011;32707;43.886;12.874;2022-08-19T07:36:33;4.82;;;1.65;;
46953;SDS011;32707;43.886;12.874;2022-08-19T07:39:01;10.25;;;2.15;;
46953;SDS011;32707;43.886;12.874;2022-08-19T07:41:30;6.80;;;2.10;;
46953;SDS011;32707;43.886;12.874;2022-08-19T07:43:56;10.80;;;1.85;;
46953;SDS011;32707;43.886;12.874;2022-08-19T07:46:23;12.50;;;1.83;;
46953;SDS011;32707;43.886;12.874;2022-08-19T07:48:49;7.95;;;2.03;;
46953;SDS011;32707;43.886;12.874;2022-08-19T07:51:17;5.47;;;1.23;;
46953;SDS011;32707;43.886;12.874;2022-08-19T07:53:46;13.25;;;1.83;;
46953;SDS011;32707;43.886;12.874;2022-08-19T07:56:13;10.23;;;1.85;;
46953;SDS011;32707;43.886;12.874;2022-08-19T07:58:40;13.48;;;1.35;;
46953;SDS011;32707;43.886;12.874;2022-08-19T08:01:09;8.88;;;1.30;;
46953;SDS011;32707;43.886;12.874;2022-08-19T08:03:38;13.88;;;1.83;;
46953;SDS011;32707;43.886;12.874;2022-08-19T08:06:22;9.82;;;1.52;;
46953;SDS011;32707;43.886;12.874;2022-08-19T08:09:06;8.85;;;1.92;;
46953;SDS011;32707;43.886;12.874;2022-08-19T08:11:52;11.10;;;1.75;;
46953;SDS011;32707;43.886;12.874;2022-08-19T08:14:25;15.38;;;1.88;;
46953;SDS011;32707;43.886;12.874;2022-08-19T08:16:53;9.27;;;1.63;;
46953;SDS011;32707;43.886;12.874;2022-08-19T08:19:19;8.95;;;1.80;;
46953;SDS011;32707;43.886;12.874;2022-08-19T08:21:47;10.30;;;1.90;;
46953;SDS011;32707;43.886;12.874;2022-08-19T08:24:15;13.52;;;1.60;;
46953;SDS011;32707;43.886;12.874;2022-08-19T08:26:43;7.05;;;1.73;;
46953;SDS011;32707;43.886;12.874;2022-08-19T08:29:13;11.68;;;1.60;;
46953;SDS011;32707;43.886;12.874;2022-08-19T08:31:40;14.10;;;1.83;;
46953;SDS011;32707;43.886;12.874;2022-08-19T08:34:07;6.30;;;1.75;;
46953;SDS011;32707;43.886;12.874;2022-08-19T08:36:37;8.38;;;1.67;;
46953;SDS011;32707;43.886;12.874;2022-08-19T08:39:08;6.43;;;1.38;;
46953;SDS011;32707;43.886;12.874;2022-08-19T08:41:40;10.02;;;1.38;;
46953;SDS011;32707;43.886;12.874;2022-08-19T08:45:04;7.68;;;1.70;;
46953;SDS011;32707;43.886;12.874;2022-08-19T08:47:18;4.20;;;0.98;;
46953;SDS011;32707;43.886;12.874;2022-08-19T08:49:52;5.13;;;1.88;;
46953;SDS011;32707;43.886;12.874;2022-08-19T08:52:29;5.35;;;1.50;;
46953;SDS011;32707;43.886;12.874;2022-08-19T08:55:03;7.38;;;1.13;;
46953;SDS011;32707;43.886;12.874;2022-08-19T09:00:35;3.33;;;1.08;;
46953;SDS011;32707;43.886;12.874;2022-08-19T09:03:03;7.82;;;1.38;;
46953;SDS011;32707;43.886;12.874;2022-08-19T09:08:09;13.00;;;1.77;;
46953;SDS011;32707;43.886;12.874;2022-08-19T09:10:44;8.32;;;1.67;;
46953;SDS011;32707;43.886;12.874;2022-08-19T09:15:50;5.90;;;1.65;;
46953;SDS011;32707;43.886;12.874;2022-08-19T09:18:21;9.65;;;1.55;;
46953;SDS011;32707;43.886;12.874;2022-08-19T09:20:47;10.25;;;1.88;;
46953;SDS011;32707;43.886;12.874;2022-08-19T09:23:13;8.63;;;1.67;;
46953;SDS011;32707;43.886;12.874;2022-08-19T09:25:38;14.57;;;1.65;;
46953;SDS011;32707;43.886;12.874;2022-08-19T09:28:05;6.78;;;1.38;;
46953;SDS011;32707;43.886;12.874;2022-08-19T09:30:32;16.98;;;1.70;;
46953;SDS011;32707;43.886;12.874;2022-08-19T09:33:02;4.55;;;1.50;;
46953;SDS011;32707;43.886;12.874;2022-08-19T09:35:28;2.35;;;1.15;;
46953;SDS011;32707;43.886;12.874;2022-08-19T09:37:55;3.53;;;1.00;;
46953;SDS011;32707;43.886;12.874;2022-08-19T09:40:22;1.75;;;0.95;;
46953;SDS011;32707;43.886;12.874;2022-08-19T09:42:50;4.07;;;0.70;;
46953;SDS011;32707;43.886;12.874;2022-08-19T09:45:16;3.75;;;0.70;;
46953;SDS011;32707;43.886;12.874;2022-08-19T09:47:46;2.75;;;0.65;;
46953;SDS011;32707;43.886;12.874;2022-08-19T09:50:11;6.45;;;0.40;;
46953;SDS011;32707;43.886;12.874;2022-08-19T09:52:38;7.10;;;0.70;;
46953;SDS011;32707;43.886;12.874;2022-08-19T09:55:05;4.18;;;0.52;;
46953;SDS011;32707;43.886;12.874;2022-08-19T09:57:32;5.78;;;0.85;;
46953;SDS011;32707;43.886;12.874;2022-08-19T09:59:58;2.40;;;0.50;;
46953;SDS011;32707;43.886;12.874;2022-08-19T10:02:24;3.95;;;1.15;;
46953;SDS011;32707;43.886;12.874;2022-08-19T10:04:50;9.73;;;0.60;;
46953;SDS011;32707;43.886;12.874;2022-08-19T10:07:37;2.58;;;0.82;;
46953;SDS011;32707;43.886;12.874;2022-08-19T10:10:03;0.85;;;0.60;;
46953;SDS011;32707;43.886;12.874;2022-08-19T10:12:31;3.58;;;0.57;;
46953;SDS011;32707;43.886;12.874;2022-08-19T10:14:58;1.10;;;0.52;;
46953;SDS011;32707;43.886;12.874;2022-08-19T10:17:24;2.30;;;0.70;;
46953;SDS011;32707;43.886;12.874;2022-08-19T10:19:50;2.75;;;0.40;;
46953;SDS011;32707;43.886;12.874;2022-08-19T10:22:19;1.98;;;0.35;;
46953;SDS011;32707;43.886;12.874;2022-08-19T10:24:47;3.25;;;0.60;;
46953;SDS011;32707;43.886;12.874;2022-08-19T10:27:16;0.30;;;0.25;;
46953;SDS011;32707;43.886;12.874;2022-08-19T10:29:45;1.58;;;0.32;;
46953;SDS011;32707;43.886;12.874;2022-08-19T10:32:10;2.58;;;0.68;;
46953;SDS011;32707;43.886;12.874;2022-08-19T10:34:36;3.67;;;0.50;;
46953;SDS011;32707;43.886;12.874;2022-08-19T10:37:03;2.33;;;0.80;;
46953;SDS011;32707;43.886;12.874;2022-08-19T10:39:33;2.33;;;0.50;;
46953;SDS011;32707;43.886;12.874;2022-08-19T10:42:04;2.75;;;0.63;;
46953;SDS011;32707;43.886;12.874;2022-08-19T10:44:31;4.97;;;0.35;;
46953;SDS011;32707;43.886;12.874;2022-08-19T10:46:57;2.08;;;0.55;;
46953;SDS011;32707;43.886;12.874;2022-08-19T10:49:23;3.88;;;0.60;;
46953;SDS011;32707;43.886;12.874;2022-08-19T10:51:49;1.45;;;0.80;;
46953;SDS011;32707;43.886;12.874;2022-08-19T10:54:33;0.93;;;0.45;;
46953;SDS011;32707;43.886;12.874;2022-08-19T10:57:17;7.43;;;0.50;;
46953;SDS011;32707;43.886;12.874;2022-08-19T10:59:42;0.50;;;0.50;;
46953;SDS011;32707;43.886;12.874;2022-08-19T11:02:09;5.13;;;1.08;;
46953;SDS011;32707;43.886;12.874;2022-08-19T11:04:37;7.53;;;1.02;;
46953;SDS011;32707;43.886;12.874;2022-08-19T11:07:04;4.03;;;1.00;;
46953;SDS011;32707;43.886;12.874;2022-08-19T11:09:31;2.25;;;0.60;;
46953;SDS011;32707;43.886;12.874;2022-08-19T11:12:02;8.43;;;0.55;;
46953;SDS011;32707;43.886;12.874;2022-08-19T11:14:28;1.42;;;0.43;;
46953;SDS011;32707;43.886;12.874;2022-08-19T11:16:55;1.85;;;0.73;;
46953;SDS011;32707;43.886;12.874;2022-08-19T11:19:22;9.57;;;0.63;;
46953;SDS011;32707;43.886;12.874;2022-08-19T11:21:49;1.05;;;0.40;;
46953;SDS011;32707;43.886;12.874;2022-08-19T11:24:16;1.55;;;0.50;;
46953;SDS011;32707;43.886;12.874;2022-08-19T11:26:45;1.75;;;0.50;;
46953;SDS011;32707;43.886;12.874;2022-08-19T11:29:11;3.30;;;0.50;;
46953;SDS011;32707;43.886;12.874;2022-08-19T11:31:39;1.48;;;0.55;;
46953;SDS011;32707;43.886;12.874;2022-08-19T11:34:08;7.47;;;0.77;;
46953;SDS011;32707;43.886;12.874;2022-08-19T11:36:36;0.80;;;0.52;;
46953;SDS011;32707;43.886;12.874;2022-08-19T11:39:04;1.08;;;0.70;;
46953;SDS011;32707;43.886;12.874;2022-08-19T11:41:31;1.00;;;0.73;;
46953;SDS011;32707;43.886;12.874;2022-08-19T11:43:57;2.15;;;0.75;;
46953;SDS011;32707;43.886;12.874;2022-08-19T11:46:23;1.33;;;0.90;;
46953;SDS011;32707;43.886;12.874;2022-08-19T11:48:50;1.88;;;0.80;;
46953;SDS011;32707;43.886;12.874;2022-08-19T11:51:18;1.45;;;0.90;;
46953;SDS011;32707;43.886;12.874;2022-08-19T11:53:45;3.05;;;0.90;;
46953;SDS011;32707;43.886;12.874;2022-08-19T11:56:11;3.03;;;0.85;;
46953;SDS011;32707;43.886;12.874;2022-08-19T11:58:37;0.68;;;0.57;;
46953;SDS011;32707;43.886;12.874;2022-08-19T12:01:07;3.03;;;0.90;;
46953;SDS011;32707;43.886;12.874;2022-08-19T12:03:34;0.82;;;0.82;;
46953;SDS011;32707;43.886;12.874;2022-08-19T12:06:06;1.35;;;0.60;;
46953;SDS011;32707;43.886;12.874;2022-08-19T12:08:34;1.95;;;0.70;;
46953;SDS011;32707;43.886;12.874;2022-08-19T12:11:00;0.98;;;0.60;;
46953;SDS011;32707;43.886;12.874;2022-08-19T12:13:29;1.58;;;0.70;;
46953;SDS011;32707;43.886;12.874;2022-08-19T12:15:57;4.70;;;0.50;;
46953;SDS011;32707;43.886;12.874;2022-08-19T12:18:23;1.75;;;0.80;;
46953;SDS011;32707;43.886;12.874;2022-08-19T12:20:50;1.38;;;0.68;;
46953;SDS011;32707;43.886;12.874;2022-08-19T12:23:17;7.18;;;0.68;;
46953;SDS011;32707;43.886;12.874;2022-08-19T12:25:43;3.88;;;0.70;;
46953;SDS011;32707;43.886;12.874;2022-08-19T12:30:46;0.40;;;0.40;;
46953;SDS011;32707;43.886;12.874;2022-08-19T12:33:13;2.47;;;0.65;;
46953;SDS011;32707;43.886;12.874;2022-08-19T12:35:42;1.10;;;0.45;;
46953;SDS011;32707;43.886;12.874;2022-08-19T12:38:10;1.17;;;0.47;;
46953;SDS011;32707;43.886;12.874;2022-08-19T12:40:36;1.33;;;0.45;;
46953;SDS011;32707;43.886;12.874;2022-08-19T12:43:02;0.50;;;0.20;;
46953;SDS011;32707;43.886;12.874;2022-08-19T12:45:28;2.17;;;0.63;;
46953;SDS011;32707;43.886;12.874;2022-08-19T12:47:53;0.90;;;0.25;;
46953;SDS011;32707;43.886;12.874;2022-08-19T12:50:19;0.55;;;0.40;;
46953;SDS011;32707;43.886;12.874;2022-08-19T12:52:46;0.38;;;0.38;;
46953;SDS011;32707;43.886;12.874;2022-08-19T12:55:13;3.13;;;0.65;;
46953;SDS011;32707;43.886;12.874;2022-08-19T12:57:39;2.60;;;0.65;;
46953;SDS011;32707;43.886;12.874;2022-08-19T13:00:08;1.45;;;0.70;;
46953;SDS011;32707;43.886;12.874;2022-08-19T13:02:38;1.95;;;0.40;;
46953;SDS011;32707;43.886;12.874;2022-08-19T13:05:07;0.65;;;0.32;;
46953;SDS011;32707;43.886;12.874;2022-08-19T13:07:35;2.08;;;0.68;;
46953;SDS011;32707;43.886;12.874;2022-08-19T13:10:03;4.18;;;0.70;;
46953;SDS011;32707;43.886;12.874;2022-08-19T13:12:30;3.08;;;0.80;;
46953;SDS011;32707;43.886;12.874;2022-08-19T13:14:55;0.43;;;0.40;;
46953;SDS011;32707;43.886;12.874;2022-08-19T13:17:21;0.43;;;0.40;;
46953;SDS011;32707;43.886;12.874;2022-08-19T13:19:47;1.63;;;0.77;;
46953;SDS011;32707;43.886;12.874;2022-08-19T13:22:13;8.60;;;0.75;;
46953;SDS011;32707;43.886;12.874;2022-08-19T13:24:38;4.47;;;0.70;;
46953;SDS011;32707;43.886;12.874;2022-08-19T13:27:04;7.93;;;0.70;;
46953;SDS011;32707;43.886;12.874;2022-08-19T13:29:29;4.35;;;0.55;;
46953;SDS011;32707;43.886;12.874;2022-08-19T13:32:13;3.72;;;0.77;;
46953;SDS011;32707;43.886;12.874;2022-08-19T13:34:57;1.00;;;0.52;;
46953;SDS011;32707;43.886;12.874;2022-08-19T13:37:23;10.52;;;0.93;;
46953;SDS011;32707;43.886;12.874;2022-08-19T13:40:07;5.68;;;0.73;;
46953;SDS011;32707;43.886;12.874;2022-08-19T13:42:40;9.30;;;1.08;;
46953;SDS011;32707;43.886;12.874;2022-08-19T13:45:06;0.68;;;0.60;;
46953;SDS011;32707;43.886;12.874;2022-08-19T13:47:33;7.40;;;0.98;;
46953;SDS011;32707;43.886;12.874;2022-08-19T13:50:12;9.27;;;0.70;;
46953;SDS011;32707;43.886;12.874;2022-08-19T13:52:39;1.40;;;0.43;;
46953;SDS011;32707;43.886;12.874;2022-08-19T13:55:08;4.32;;;0.80;;
46953;SDS011;32707;43.886;12.874;2022-08-19T13:57:35;0.57;;;0.50;;
46953;SDS011;32707;43.886;12.874;2022-08-19T14:00:04;0.90;;;0.57;;
46953;SDS011;32707;43.886;12.874;2022-08-19T14:02:36;3.15;;;0.85;;
46953;SDS011;32707;43.886;12.874;2022-08-19T14:05:03;3.70;;;0.73;;
46953;SDS011;32707;43.886;12.874;2022-08-19T14:07:29;4.28;;;0.60;;
46953;SDS011;32707;43.886;12.874;2022-08-19T14:09:55;3.75;;;1.95;;
46953;SDS011;32707;43.886;12.874;2022-08-19T14:12:21;1.42;;;0.57;;
46953;SDS011;32707;43.886;12.874;2022-08-19T14:14:47;0.95;;;0.85;;
46953;SDS011;32707;43.886;12.874;2022-08-19T14:17:12;0.63;;;0.50;;
46953;SDS011;32707;43.886;12.874;2022-08-19T14:19:38;0.73;;;0.40;;
46953;SDS011;32707;43.886;12.874;2022-08-19T14:22:04;1.30;;;0.90;;
46953;SDS011;32707;43.886;12.874;2022-08-19T14:24:30;1.67;;;0.40;;
46953;SDS011;32707;43.886;12.874;2022-08-19T14:26:57;1.40;;;0.60;;
46953;SDS011;32707;43.886;12.874;2022-08-19T14:29:25;3.85;;;0.60;;
46953;SDS011;32707;43.886;12.874;2022-08-19T14:31:53;1.20;;;0.68;;
46953;SDS011;32707;43.886;12.874;2022-08-19T14:34:21;2.00;;;0.55;;
46953;SDS011;32707;43.886;12.874;2022-08-19T14:36:47;1.23;;;0.65;;
46953;SDS011;32707;43.886;12.874;2022-08-19T14:39:12;1.58;;;0.60;;
46953;SDS011;32707;43.886;12.874;2022-08-19T14:41:39;8.27;;;0.50;;
46953;SDS011;32707;43.886;12.874;2022-08-19T14:44:08;0.73;;;0.60;;
46953;SDS011;32707;43.886;12.874;2022-08-19T14:46:37;1.17;;;0.45;;
46953;SDS011;32707;43.886;12.874;2022-08-19T14:49:04;0.80;;;0.52;;
46953;SDS011;32707;43.886;12.874;2022-08-19T14:51:30;2.15;;;0.50;;
46953;SDS011;32707;43.886;12.874;2022-08-19T14:53:56;1.58;;;0.60;;
46953;SDS011;32707;43.886;12.874;2022-08-19T14:56:24;6.50;;;0.32;;
46953;SDS011;32707;43.886;12.874;2022-08-19T14:58:51;0.32;;;0.28;;
46953;SDS011;32707;43.886;12.874;2022-08-19T15:01:18;0.95;;;0.30;;
46953;SDS011;32707;43.886;12.874;2022-08-19T15:03:48;1.55;;;0.52;;
46953;SDS011;32707;43.886;12.874;2022-08-19T15:06:14;2.00;;;0.22;;
46953;SDS011;32707;43.886;12.874;2022-08-19T15:08:41;1.20;;;0.45;;
46953;SDS011;32707;43.886;12.874;2022-08-19T15:11:09;7.50;;;0.73;;
46953;SDS011;32707;43.886;12.874;2022-08-19T15:13:43;2.10;;;0.40;;
46953;SDS011;32707;43.886;12.874;2022-08-19T15:16:09;4.88;;;0.43;;
46953;SDS011;32707;43.886;12.874;2022-08-19T15:18:39;0.98;;;0.50;;
46953;SDS011;32707;43.886;12.874;2022-08-19T15:21:09;0.50;;;0.40;;
46953;SDS011;32707;43.886;12.874;2022-08-19T15:23:39;3.40;;;0.50;;
46953;SDS011;32707;43.886;12.874;2022-08-19T15:26:05;0.68;;;0.43;;
46953;SDS011;32707;43.886;12.874;2022-08-19T15:28:32;1.33;;;0.63;;
46953;SDS011;32707;43.886;12.874;2022-08-19T15:31:02;1.25;;;0.32;;
46953;SDS011;32707;43.886;12.874;2022-08-19T15:33:30;1.50;;;0.57;;
46953;SDS011;32707;43.886;12.874;2022-08-19T15:35:57;0.73;;;0.47;;
46953;SDS011;32707;43.886;12.874;2022-08-19T15:38:23;3.40;;;0.60;;
46953;SDS011;32707;43.886;12.874;2022-08-19T15:40:51;3.03;;;0.40;;
46953;SDS011;32707;43.886;12.874;2022-08-19T15:43:17;0.45;;;0.40;;
46953;SDS011;32707;43.886;12.874;2022-08-19T15:45:46;2.70;;;0.80;;
46953;SDS011;32707;43.886;12.874;2022-08-19T15:48:12;0.40;;;0.40;;
46953;SDS011;32707;43.886;12.874;2022-08-19T15:50:37;1.27;;;0.75;;
46953;SDS011;32707;43.886;12.874;2022-08-19T15:53:05;3.10;;;0.45;;
46953;SDS011;32707;43.886;12.874;2022-08-19T15:55:34;1.50;;;0.47;;
46953;SDS011;32707;43.886;12.874;2022-08-19T15:58:07;8.05;;;0.52;;
46953;SDS011;32707;43.886;12.874;2022-08-19T16:00:52;2.03;;;0.57;;
46953;SDS011;32707;43.886;12.874;2022-08-19T16:03:36;0.95;;;0.43;;
46953;SDS011;32707;43.886;12.874;2022-08-19T16:06:20;3.35;;;0.70;;
46953;SDS011;32707;43.886;12.874;2022-08-19T16:08:56;2.05;;;0.68;;
46953;SDS011;32707;43.886;12.874;2022-08-19T16:11:24;1.05;;;0.50;;
46953;SDS011;32707;43.886;12.874;2022-08-19T16:13:53;0.68;;;0.63;;
46953;SDS011;32707;43.886;12.874;2022-08-19T16:16:26;2.03;;;0.68;;
46953;SDS011;32707;43.886;12.874;2022-08-19T16:18:55;3.90;;;0.60;;
46953;SDS011;32707;43.886;12.874;2022-08-19T16:21:22;4.03;;;0.90;;
46953;SDS011;32707;43.886;12.874;2022-08-19T16:23:50;3.42;;;1.02;;
46953;SDS011;32707;43.886;12.874;2022-08-19T16:26:17;4.50;;;1.10;;
46953;SDS011;32707;43.886;12.874;2022-08-19T16:31:50;5.40;;;1.20;;
46953;SDS011;32707;43.886;12.874;2022-08-19T16:34:18;10.45;;;1.27;;
46953;SDS011;32707;43.886;12.874;2022-08-19T16:36:44;9.05;;;1.80;;
46953;SDS011;32707;43.886;12.874;2022-08-19T16:39:10;7.05;;;1.50;;
46953;SDS011;32707;43.886;12.874;2022-08-19T16:41:37;6.38;;;1.80;;
46953;SDS011;32707;43.886;12.874;2022-08-19T16:44:04;4.97;;;1.55;;
46953;SDS011;32707;43.886;12.874;2022-08-19T16:46:31;4.43;;;1.40;;
46953;SDS011;32707;43.886;12.874;2022-08-19T16:48:56;2.67;;;1.17;;
46953;SDS011;32707;43.886;12.874;2022-08-19T16:51:23;2.72;;;1.35;;
46953;SDS011;32707;43.886;12.874;2022-08-19T16:53:48;8.18;;;1.52;;
46953;SDS011;32707;43.886;12.874;2022-08-19T16:56:16;8.25;;;2.40;;
46953;SDS011;32707;43.886;12.874;2022-08-19T16:58:43;4.43;;;1.65;;
46953;SDS011;32707;43.886;12.874;2022-08-19T17:01:14;6.18;;;1.40;;
46953;SDS011;32707;43.886;12.874;2022-08-19T17:03:41;5.90;;;1.27;;
46953;SDS011;32707;43.886;12.874;2022-08-19T17:06:12;3.25;;;0.98;;
46953;SDS011;32707;43.886;12.874;2022-08-19T17:08:40;4.13;;;0.93;;
46953;SDS011;32707;43.886;12.874;2022-08-19T17:11:06;8.32;;;1.25;;
46953;SDS011;32707;43.886;12.874;2022-08-19T17:13:32;1.38;;;0.95;;
46953;SDS011;32707;43.886;12.874;2022-08-19T17:15:58;3.03;;;0.88;;
46953;SDS011;32707;43.886;12.874;2022-08-19T17:18:24;5.47;;;1.38;;
46953;SDS011;32707;43.886;12.874;2022-08-19T17:20:50;5.10;;;1.27;;
46953;SDS011;32707;43.886;12.874;2022-08-19T17:23:17;5.38;;;0.80;;
46953;SDS011;32707;43.886;12.874;2022-08-19T17:25:46;4.20;;;0.82;;
46953;SDS011;32707;43.886;12.874;2022-08-19T17:28:19;3.95;;;0.52;;
46953;SDS011;32707;43.886;12.874;2022-08-19T17:30:50;6.35;;;0.68;;
46953;SDS011;32707;43.886;12.874;2022-08-19T17:33:16;0.82;;;0.73;;
46953;SDS011;32707;43.886;12.874;2022-08-19T17:35:42;2.90;;;0.95;;
46953;SDS011;32707;43.886;12.874;2022-08-19T17:38:12;2.15;;;0.80;;
46953;SDS011;32707;43.886;12.874;2022-08-19T17:40:42;12.00;;;1.33;;
46953;SDS011;32707;43.886;12.874;2022-08-19T17:43:11;2.72;;;1.13;;
46953;SDS011;32707;43.886;12.874;2022-08-19T17:45:39;2.53;;;1.27;;
46953;SDS011;32707;43.886;12.874;2022-08-19T17:48:05;1.38;;;1.05;;
46953;SDS011;32707;43.886;12.874;2022-08-19T17:50:33;2.85;;;1.40;;
46953;SDS011;32707;43.886;12.874;2022-08-19T17:52:59;1.95;;;0.70;;
46953;SDS011;32707;43.886;12.874;2022-08-19T17:55:29;1.67;;;0.90;;
46953;SDS011;32707;43.886;12.874;2022-08-19T17:57:56;5.70;;;1.17;;
46953;SDS011;32707;43.886;12.874;2022-08-19T18:00:22;2.30;;;1.02;;
46953;SDS011;32707;43.886;12.874;2022-08-19T18:02:55;2.70;;;0.82;;
46953;SDS011;32707;43.886;12.874;2022-08-19T18:05:25;1.83;;;1.00;;
46953;SDS011;32707;43.886;12.874;2022-08-19T18:07:54;2.55;;;0.90;;
46953;SDS011;32707;43.886;12.874;2022-08-19T18:10:21;1.48;;;0.82;;
46953;SDS011;32707;43.886;12.874;2022-08-19T18:12:49;4.82;;;1.42;;
46953;SDS011;32707;43.886;12.874;2022-08-19T18:15:15;3.63;;;1.27;;
46953;SDS011;32707;43.886;12.874;2022-08-19T18:17:41;1.20;;;0.90;;
46953;SDS011;32707;43.886;12.874;2022-08-19T18:20:08;2.97;;;1.02;;
46953;SDS011;32707;43.886;12.874;2022-08-19T18:22:40;2.50;;;1.17;;
46953;SDS011;32707;43.886;12.874;2022-08-19T18:25:10;4.55;;;1.30;;
46953;SDS011;32707;43.886;12.874;2022-08-19T18:27:46;7.75;;;1.50;;
46953;SDS011;32707;43.886;12.874;2022-08-19T18:30:12;2.05;;;1.42;;
46953;SDS011;32707;43.886;12.874;2022-08-19T18:32:39;2.58;;;1.20;;
46953;SDS011;32707;43.886;12.874;2022-08-19T18:35:10;1.80;;;1.20;;
46953;SDS011;32707;43.886;12.874;2022-08-19T18:37:38;4.38;;;1.00;;
46953;SDS011;32707;43.886;12.874;2022-08-19T18:40:05;5.88;;;1.70;;
46953;SDS011;32707;43.886;12.874;2022-08-19T18:42:50;3.40;;;1.08;;
46953;SDS011;32707;43.886;12.874;2022-08-19T18:45:34;6.70;;;2.20;;
46953;SDS011;32707;43.886;12.874;2022-08-19T18:48:18;4.10;;;2.75;;
46953;SDS011;32707;43.886;12.874;2022-08-19T18:51:02;3.83;;;1.90;;
46953;SDS011;32707;43.886;12.874;2022-08-19T18:53:29;3.42;;;1.10;;
46953;SDS011;32707;43.886;12.874;2022-08-19T18:55:56;2.13;;;1.10;;
46953;SDS011;32707;43.886;12.874;2022-08-19T18:58:24;3.83;;;1.20;;
46953;SDS011;32707;43.886;12.874;2022-08-19T19:01:00;4.13;;;1.40;;
46953;SDS011;32707;43.886;12.874;2022-08-19T19:03:34;1.90;;;1.27;;
46953;SDS011;32707;43.886;12.874;2022-08-19T19:06:01;2.65;;;0.90;;
46953;SDS011;32707;43.886;12.874;2022-08-19T19:08:28;1.13;;;1.02;;
46953;SDS011;32707;43.886;12.874;2022-08-19T19:10:54;3.90;;;1.50;;
46953;SDS011;32707;43.886;12.874;2022-08-19T19:13:23;6.32;;;2.85;;
46953;SDS011;32707;43.886;12.874;2022-08-19T19:15:48;7.93;;;2.45;;
46953;SDS011;32707;43.886;12.874;2022-08-19T19:18:18;5.40;;;2.03;;
46953;SDS011;32707;43.886;12.874;2022-08-19T19:20:43;5.97;;;1.27;;
46953;SDS011;32707;43.886;12.874;2022-08-19T19:23:09;2.65;;;1.27;;
46953;SDS011;32707;43.886;12.874;2022-08-19T19:25:34;5.40;;;1.25;;
46953;SDS011;32707;43.886;12.874;2022-08-19T19:28:03;6.82;;;1.10;;
46953;SDS011;32707;43.886;12.874;2022-08-19T19:30:29;2.30;;;1.00;;
46953;SDS011;32707;43.886;12.874;2022-08-19T19:32:55;1.48;;;1.00;;
46953;SDS011;32707;43.886;12.874;2022-08-19T19:35:24;4.53;;;1.55;;
46953;SDS011;32707;43.886;12.874;2022-08-19T19:37:49;2.38;;;1.10;;
46953;SDS011;32707;43.886;12.874;2022-08-19T19:40:17;1.55;;;1.13;;
46953;SDS011;32707;43.886;12.874;2022-08-19T19:42:43;5.20;;;1.08;;
46953;SDS011;32707;43.886;12.874;2022-08-19T19:45:12;2.20;;;1.13;;
46953;SDS011;32707;43.886;12.874;2022-08-19T19:47:38;6.97;;;1.42;;
46953;SDS011;32707;43.886;12.874;2022-08-19T19:50:03;3.83;;;0.70;;
46953;SDS011;32707;43.886;12.874;2022-08-19T19:52:29;1.85;;;1.10;;
46953;SDS011;32707;43.886;12.874;2022-08-19T19:54:55;2.22;;;1.17;;
46953;SDS011;32707;43.886;12.874;2022-08-19T19:57:21;2.30;;;1.48;;
46953;SDS011;32707;43.886;12.874;2022-08-19T19:59:50;2.70;;;1.58;;
46953;SDS011;32707;43.886;12.874;2022-08-19T20:02:16;2.72;;;1.33;;
46953;SDS011;32707;43.886;12.874;2022-08-19T20:04:42;6.22;;;1.42;;
46953;SDS011;32707;43.886;12.874;2022-08-19T20:07:08;11.77;;;1.45;;
46953;SDS011;32707;43.886;12.874;2022-08-19T20:09:36;6.63;;;1.10;;
46953;SDS011;32707;43.886;12.874;2022-08-19T20:12:02;4.30;;;1.45;;
46953;SDS011;32707;43.886;12.874;2022-08-19T20:14:29;5.15;;;1.00;;
46953;SDS011;32707;43.886;12.874;2022-08-19T20:16:56;1.83;;;1.10;;
46953;SDS011;32707;43.886;12.874;2022-08-19T20:19:25;3.90;;;1.20;;
46953;SDS011;32707;43.886;12.874;2022-08-19T20:21:52;3.15;;;1.30;;
46953;SDS011;32707;43.886;12.874;2022-08-19T20:24:23;6.70;;;1.33;;
46953;SDS011;32707;43.886;12.874;2022-08-19T20:26:50;1.83;;;1.30;;
46953;SDS011;32707;43.886;12.874;2022-08-19T20:29:17;1.42;;;1.10;;
46953;SDS011;32707;43.886;12.874;2022-08-19T20:31:43;2.55;;;1.08;;
46953;SDS011;32707;43.886;12.874;2022-08-19T20:34:10;2.00;;;1.45;;
46953;SDS011;32707;43.886;12.874;2022-08-19T20:36:36;2.25;;;1.45;;
46953;SDS011;32707;43.886;12.874;2022-08-19T20:39:03;7.20;;;1.30;;
46953;SDS011;32707;43.886;12.874;2022-08-19T20:41:28;1.13;;;0.85;;
46953;SDS011;32707;43.886;12.874;2022-08-19T20:43:55;2.45;;;1.00;;
46953;SDS011;32707;43.886;12.874;2022-08-19T20:46:21;2.08;;;1.38;;
46953;SDS011;32707;43.886;12.874;2022-08-19T20:48:46;2.75;;;1.10;;
46953;SDS011;32707;43.886;12.874;2022-08-19T20:51:21;1.75;;;1.20;;